Terminal Aerodrome Forecast
Issued by NWS

Home | Current Version | Previous Version | Text Only | Print | Product List | Glossary Off
Versions: 1 2 3 4 5 6 7 8 9 10 11 12 13 14 15 16 17 18 19 20

000
FTUS43 KGRB 231700
TAFCWA
TAF
KCWA 231726Z 2318/2418 07007KT 1 1/2SM -SN BR OVC004
      TEMPO 2318/2322 3/4SM -SNDZ BR
     FM232200 05004KT 2SM BR SCT002 OVC006
      TEMPO 2322/2401 3/4SM -DZ BR OVC002
     FM240100 VRB03KT 3SM -DZ BR OVC006
     FM240900 34004KT 3SM BR OVC003
     FM241500 36007KT 4SM BR OVC004=

USA.gov is the U.S. government's official web portal to all federal, state and local government web resources and services.